createdAt,value
2022-10-10T00:02:27.320Z,2.40
2022-10-10T00:04:54.793Z,4.20
2022-10-10T00:07:22.258Z,2.40
2022-10-10T00:09:49.659Z,4.10
2022-10-10T00:12:17.050Z,2.50
2022-10-10T00:14:44.416Z,3.10
2022-10-10T00:17:13.178Z,1.83
2022-10-10T00:19:40.536Z,6.20
2022-10-10T00:22:07.915Z,2.47
2022-10-10T00:24:35.284Z,2.50
2022-10-10T00:27:02.729Z,5.67
2022-10-10T00:29:30.107Z,2.50
2022-10-10T00:31:57.480Z,2.90
2022-10-10T00:34:26.204Z,2.57
2022-10-10T00:36:53.565Z,3.33
2022-10-10T00:39:20.938Z,2.27
2022-10-10T00:41:48.277Z,3.70
2022-10-10T00:44:16.232Z,4.50
2022-10-10T00:46:44.058Z,2.70
2022-10-10T00:49:13.905Z,2.20
2022-10-10T00:51:43.132Z,3.30
2022-10-10T00:54:12.883Z,7.40
2022-10-10T00:56:42.736Z,2.20
2022-10-10T00:59:11.204Z,2.30
2022-10-10T01:01:38.760Z,4.00
2022-10-10T01:04:06.196Z,3.93
2022-10-10T01:06:34.479Z,2.87
2022-10-10T01:09:03.580Z,2.27
2022-10-10T01:11:39.669Z,2.27
2022-10-10T01:14:13.154Z,2.40
2022-10-10T01:16:44.229Z,2.33
2022-10-10T01:19:22.026Z,2.40
2022-10-10T01:21:53.956Z,2.30
2022-10-10T01:24:32.046Z,2.27
2022-10-10T01:27:20.711Z,2.20
2022-10-10T01:29:51.267Z,3.40
2022-10-10T01:32:23.016Z,3.33
2022-10-10T01:34:56.740Z,2.20
2022-10-10T01:37:29.204Z,5.17
2022-10-10T01:39:59.817Z,3.03
2022-10-10T01:42:39.099Z,2.47
2022-10-10T01:45:08.598Z,2.30
2022-10-10T01:47:36.032Z,2.33
2022-10-10T01:50:05.136Z,2.83
2022-10-10T01:52:35.579Z,2.23
2022-10-10T01:55:09.235Z,2.50
2022-10-10T01:57:42.689Z,2.77
2022-10-10T02:00:12.648Z,2.77
2022-10-10T02:02:46.966Z,5.20
2022-10-10T02:05:18.192Z,2.30
2022-10-10T02:07:48.468Z,2.40
2022-10-10T02:10:18.175Z,2.33
2022-10-10T02:12:46.824Z,2.20
2022-10-10T02:15:16.844Z,4.60
2022-10-10T02:17:46.245Z,4.83
2022-10-10T02:20:14.466Z,2.30
2022-10-10T02:22:44.006Z,2.70
2022-10-10T02:25:11.706Z,5.03
2022-10-10T02:27:43.230Z,2.90
2022-10-10T02:30:11.291Z,3.77
2022-10-10T02:32:42.211Z,3.03
2022-10-10T02:35:11.108Z,4.07
2022-10-10T02:37:40.127Z,2.60
2022-10-10T02:40:09.102Z,8.63
2022-10-10T02:42:37.515Z,4.60
2022-10-10T02:45:05.253Z,2.23
2022-10-10T02:47:32.767Z,2.53
2022-10-10T02:50:01.506Z,2.83
2022-10-10T02:52:28.904Z,2.43
2022-10-10T02:54:56.317Z,4.13
2022-10-10T02:57:23.788Z,5.57
2022-10-10T02:59:51.163Z,2.90
2022-10-10T03:02:18.576Z,5.13
2022-10-10T03:04:46.017Z,7.40
2022-10-10T03:07:14.753Z,5.00
2022-10-10T03:09:42.107Z,2.20
2022-10-10T03:12:09.494Z,3.30
2022-10-10T03:14:37.080Z,2.77
2022-10-10T03:17:04.547Z,2.70
2022-10-10T03:19:31.922Z,4.43
2022-10-10T03:21:59.284Z,4.60
2022-10-10T03:24:28.276Z,4.00
2022-10-10T03:26:55.731Z,5.80
2022-10-10T03:29:23.283Z,3.57
2022-10-10T03:31:50.692Z,2.40
2022-10-10T03:34:18.086Z,3.80
2022-10-10T03:36:45.464Z,3.07
2022-10-10T03:39:12.844Z,3.90
2022-10-10T03:41:41.553Z,4.23
2022-10-10T03:44:08.932Z,2.73
2022-10-10T03:46:36.352Z,2.87
2022-10-10T03:49:03.773Z,2.90
2022-10-10T03:51:31.172Z,3.87
2022-10-10T03:53:58.627Z,5.20
2022-10-10T03:56:26.074Z,3.57
2022-10-10T03:58:54.851Z,3.57
2022-10-10T04:01:22.273Z,2.83
2022-10-10T04:03:52.104Z,4.03
2022-10-10T04:06:19.828Z,3.60
2022-10-10T04:08:47.411Z,5.40
2022-10-10T04:11:14.915Z,6.00
2022-10-10T04:13:42.309Z,4.20
2022-10-10T04:16:11.148Z,4.00
2022-10-10T04:18:38.607Z,3.53
2022-10-10T04:21:06.656Z,6.33
2022-10-10T04:23:34.134Z,9.23
2022-10-10T04:26:01.545Z,2.90
2022-10-10T04:28:29.047Z,3.33
2022-10-10T04:30:57.001Z,2.80
2022-10-10T04:33:25.815Z,5.00
2022-10-10T04:35:53.245Z,2.90
2022-10-10T04:38:21.298Z,4.87
2022-10-10T04:40:49.207Z,2.70
2022-10-10T04:43:16.595Z,6.03
2022-10-10T04:45:43.997Z,2.67
2022-10-10T04:48:11.427Z,2.67
2022-10-10T04:50:40.308Z,3.20
2022-10-10T04:53:07.706Z,3.40
2022-10-10T04:55:35.122Z,4.53
2022-10-10T04:58:02.923Z,3.23
2022-10-10T05:00:30.431Z,2.77
2022-10-10T05:02:57.813Z,5.03
2022-10-10T05:05:25.249Z,3.27
2022-10-10T05:07:55.694Z,2.90
2022-10-10T05:10:23.329Z,7.30
2022-10-10T05:12:50.995Z,4.20
2022-10-10T05:15:18.611Z,5.50
2022-10-10T05:17:46.050Z,3.60
2022-10-10T05:20:13.419Z,3.33
2022-10-10T05:22:40.796Z,3.93
2022-10-10T05:25:09.957Z,3.27
2022-10-10T05:27:37.315Z,5.30
2022-10-10T05:30:05.004Z,3.10
2022-10-10T05:32:32.511Z,7.60
2022-10-10T05:35:00.039Z,5.10
2022-10-10T05:37:27.398Z,5.00
2022-10-10T05:39:54.981Z,5.00
2022-10-10T05:42:23.879Z,3.90
2022-10-10T05:44:51.244Z,4.53
2022-10-10T05:47:18.715Z,3.43
2022-10-10T05:49:46.117Z,4.17
2022-10-10T05:52:13.544Z,3.50
2022-10-10T05:54:40.927Z,3.37
2022-10-10T05:57:10.670Z,4.50
2022-10-10T05:59:42.719Z,5.00
2022-10-10T06:02:10.139Z,4.30
2022-10-10T06:04:37.704Z,3.37
2022-10-10T06:07:05.093Z,3.30
2022-10-10T06:09:32.547Z,4.63
2022-10-10T06:11:59.923Z,11.13
2022-10-10T06:14:27.311Z,3.60
2022-10-10T06:16:56.021Z,4.10
2022-10-10T06:19:23.406Z,3.53
2022-10-10T06:21:50.854Z,3.77
2022-10-10T06:24:18.249Z,5.20
2022-10-10T06:26:45.616Z,4.30
2022-10-10T06:29:13.202Z,7.30
2022-10-10T06:31:41.238Z,9.63
2022-10-10T06:34:09.994Z,5.40
2022-10-10T06:36:37.426Z,6.30
2022-10-10T06:39:04.941Z,4.63
2022-10-10T06:41:32.423Z,3.67
2022-10-10T06:43:59.852Z,6.80
2022-10-10T06:46:27.341Z,6.10
2022-10-10T06:48:54.754Z,5.47
2022-10-10T06:51:24.385Z,6.50
2022-10-10T06:53:51.779Z,4.60
2022-10-10T06:56:26.282Z,10.47
2022-10-10T06:58:55.375Z,11.53
2022-10-10T07:01:23.470Z,4.90
2022-10-10T07:03:50.902Z,4.23
2022-10-10T07:06:18.981Z,3.60
2022-10-10T07:08:47.720Z,11.50
2022-10-10T07:11:15.200Z,6.00
2022-10-10T07:13:42.733Z,9.53
2022-10-10T07:16:11.001Z,7.33
2022-10-10T07:18:38.779Z,5.50
2022-10-10T07:21:06.307Z,3.50
2022-10-10T07:23:33.867Z,5.40
2022-10-10T07:26:03.803Z,5.17
2022-10-10T07:28:31.360Z,5.67
2022-10-10T07:31:02.873Z,3.60
2022-10-10T07:33:32.783Z,6.50
2022-10-10T07:36:00.538Z,9.20
2022-10-10T07:38:28.039Z,4.97
2022-10-10T07:40:55.468Z,4.60
2022-10-10T07:43:24.280Z,7.13
2022-10-10T07:45:51.736Z,5.67
2022-10-10T07:48:19.124Z,4.90
2022-10-10T07:50:46.506Z,4.70
2022-10-10T07:53:14.224Z,3.83
2022-10-10T07:55:41.661Z,5.47
2022-10-10T07:58:10.099Z,5.97
2022-10-10T08:00:41.822Z,6.83
2022-10-10T08:03:11.900Z,4.10
2022-10-10T08:05:40.578Z,4.37
2022-10-10T08:08:08.897Z,7.90
2022-10-10T08:10:36.299Z,3.67
2022-10-10T08:13:03.720Z,6.30
2022-10-10T08:15:33.847Z,6.67
2022-10-10T08:18:02.958Z,6.43
2022-10-10T08:20:30.369Z,7.40
2022-10-10T08:22:57.862Z,10.40
2022-10-10T08:25:25.458Z,5.23
2022-10-10T08:27:52.969Z,5.90
2022-10-10T08:30:20.462Z,3.73
2022-10-10T08:32:48.015Z,6.77
2022-10-10T08:35:16.968Z,3.50
2022-10-10T08:37:44.348Z,6.13
2022-10-10T08:40:14.045Z,4.10
2022-10-10T08:42:51.772Z,8.27
2022-10-10T08:45:22.062Z,4.40
2022-10-10T08:47:51.019Z,4.97
2022-10-10T08:50:22.451Z,5.60
2022-10-10T08:52:51.594Z,5.03
2022-10-10T08:55:20.511Z,4.63
2022-10-10T08:57:50.498Z,3.97
2022-10-10T09:00:19.636Z,5.70
2022-10-10T09:02:53.972Z,3.97
2022-10-10T09:05:31.496Z,5.33
2022-10-10T09:08:05.349Z,4.70
2022-10-10T09:10:35.587Z,3.87
2022-10-10T09:13:08.407Z,5.23
2022-10-10T09:15:38.360Z,6.03
2022-10-10T09:18:08.516Z,4.20
2022-10-10T09:20:44.463Z,7.10
2022-10-10T09:23:19.071Z,5.27
2022-10-10T09:25:49.611Z,8.17
2022-10-10T09:28:20.139Z,8.30
2022-10-10T09:30:49.732Z,6.27
2022-10-10T09:33:22.636Z,4.03
2022-10-10T09:35:52.965Z,5.63
2022-10-10T09:38:26.442Z,3.80
2022-10-10T09:40:58.322Z,6.50
2022-10-10T09:43:30.355Z,7.37
2022-10-10T09:45:57.734Z,13.87
2022-10-10T09:48:28.206Z,7.17
2022-10-10T09:50:57.199Z,8.07
2022-10-10T09:53:24.748Z,7.77
2022-10-10T09:55:53.647Z,4.73
2022-10-10T09:58:26.229Z,8.33
2022-10-10T10:00:54.598Z,6.90
2022-10-10T10:03:22.992Z,9.43
2022-10-10T10:05:58.783Z,6.87
2022-10-10T10:08:28.020Z,3.50
2022-10-10T10:10:58.185Z,4.57
2022-10-10T10:13:27.826Z,5.90
2022-10-10T10:15:59.660Z,5.37
2022-10-10T10:18:28.856Z,6.60
2022-10-10T10:21:10.424Z,4.47
2022-10-10T10:23:42.039Z,6.83
2022-10-10T10:26:16.477Z,5.10
2022-10-10T10:28:44.352Z,7.13
2022-10-10T10:31:16.766Z,5.50
2022-10-10T10:33:49.166Z,3.90
2022-10-10T10:36:24.278Z,7.43
2022-10-10T10:38:54.043Z,5.50
2022-10-10T10:41:26.443Z,4.70
2022-10-10T10:44:04.432Z,5.97
2022-10-10T10:46:37.556Z,6.40
2022-10-10T10:49:09.947Z,11.20
2022-10-10T10:51:46.292Z,2.70
2022-10-10T10:54:21.052Z,4.50
2022-10-10T10:56:51.583Z,4.77
2022-10-10T11:00:17.059Z,4.40
2022-10-10T11:02:54.936Z,22.67
2022-10-10T11:05:39.875Z,4.80
2022-10-10T11:08:36.533Z,7.37
2022-10-10T11:11:11.450Z,5.23
2022-10-10T11:13:41.089Z,6.30
2022-10-10T11:16:30.309Z,3.67
2022-10-10T11:19:08.215Z,6.63
2022-10-10T11:21:39.576Z,6.30
2022-10-10T11:24:08.664Z,7.23
2022-10-10T11:26:39.771Z,5.20
2022-10-10T11:29:10.712Z,4.27
2022-10-10T11:31:40.204Z,9.03
2022-10-10T11:34:10.025Z,6.40
2022-10-10T11:36:38.832Z,10.00
2022-10-10T11:39:15.366Z,5.00
2022-10-10T11:41:48.761Z,7.40
2022-10-10T11:44:18.764Z,4.57
2022-10-10T11:46:50.642Z,11.93
2022-10-10T11:49:23.642Z,5.63
2022-10-10T11:52:31.985Z,4.57
2022-10-10T11:54:54.476Z,8.77
2022-10-10T11:57:27.323Z,4.40
2022-10-10T11:59:57.311Z,6.93
2022-10-10T12:02:28.184Z,5.00
2022-10-10T12:04:55.820Z,4.97
2022-10-10T12:07:26.163Z,4.83
2022-10-10T12:09:55.525Z,6.23
2022-10-10T12:12:26.452Z,5.87
2022-10-10T12:14:55.687Z,4.23
2022-10-10T12:17:25.702Z,6.83
2022-10-10T12:19:54.513Z,5.70
2022-10-10T12:22:27.769Z,7.10
2022-10-10T12:25:09.396Z,3.70
2022-10-10T12:27:45.006Z,8.00
2022-10-10T12:30:28.524Z,5.93
2022-10-10T12:32:55.922Z,6.50
2022-10-10T12:35:30.919Z,5.97
2022-10-10T12:38:09.660Z,4.50
2022-10-10T12:40:58.356Z,6.70
2022-10-10T12:43:37.379Z,5.40
2022-10-10T12:46:22.363Z,5.03
2022-10-10T12:48:58.635Z,5.40
2022-10-10T12:51:26.514Z,5.30
2022-10-10T12:53:55.568Z,4.73
2022-10-10T12:56:33.559Z,5.20
2022-10-10T12:59:02.436Z,3.73
2022-10-10T13:01:31.079Z,3.40
2022-10-10T13:03:58.980Z,3.37
2022-10-10T13:06:29.070Z,6.33
2022-10-10T13:08:56.946Z,7.83
2022-10-10T13:11:24.428Z,9.20
2022-10-10T13:13:52.496Z,6.17
2022-10-10T13:16:22.125Z,5.00
2022-10-10T13:18:50.583Z,4.70
2022-10-10T13:21:19.791Z,3.57
2022-10-10T13:26:37.760Z,2.53
2022-10-10T13:29:07.932Z,7.20
2022-10-10T13:31:39.070Z,6.03
2022-10-10T13:34:07.655Z,5.63
2022-10-10T13:36:35.519Z,4.70
2022-10-10T13:39:03.310Z,4.03
2022-10-10T13:41:30.801Z,7.07
2022-10-10T13:43:58.233Z,6.77
2022-10-10T13:46:31.755Z,4.00
2022-10-10T13:49:00.840Z,5.30
2022-10-10T13:51:41.834Z,3.77
2022-10-10T13:54:36.420Z,3.93
2022-10-10T13:57:04.518Z,8.00
2022-10-10T13:59:31.966Z,4.03
2022-10-10T14:02:00.525Z,3.30
2022-10-10T14:04:32.823Z,6.03
2022-10-10T14:07:01.345Z,6.10
2022-10-10T14:09:31.711Z,5.57
2022-10-10T14:12:01.124Z,5.70
2022-10-10T14:14:33.468Z,4.13
2022-10-10T14:17:01.311Z,5.63
2022-10-10T14:19:30.486Z,4.40
2022-10-10T14:21:58.225Z,4.60
2022-10-10T14:24:25.955Z,11.33
2022-10-10T14:26:53.633Z,4.27
2022-10-10T14:29:21.102Z,6.70
2022-10-10T14:31:48.740Z,6.60
2022-10-10T14:34:16.351Z,9.43
2022-10-10T14:36:46.799Z,9.43
2022-10-10T14:39:14.546Z,8.63
2022-10-10T14:41:41.987Z,5.17
2022-10-10T14:44:09.398Z,7.60
2022-10-10T14:46:36.843Z,8.87
2022-10-10T14:49:08.664Z,6.30
2022-10-10T14:51:38.557Z,6.30
2022-10-10T14:54:13.664Z,7.77
2022-10-10T14:57:08.795Z,8.80
2022-10-10T14:59:47.064Z,12.83
2022-10-10T15:02:17.124Z,6.00
2022-10-10T15:04:44.714Z,5.47
2022-10-10T15:07:14.390Z,7.33
2022-10-10T15:10:02.594Z,13.83
2022-10-10T15:12:31.992Z,7.70
2022-10-10T15:14:59.400Z,6.00
2022-10-10T15:17:27.210Z,5.80
2022-10-10T15:19:54.676Z,6.80
2022-10-10T15:22:22.138Z,6.93
2022-10-10T15:24:50.877Z,7.83
2022-10-10T15:27:18.313Z,5.50
2022-10-10T15:29:45.752Z,5.13
2022-10-10T15:32:13.231Z,4.83
2022-10-10T15:34:40.776Z,7.73
2022-10-10T15:37:10.469Z,11.93
2022-10-10T15:39:38.040Z,7.23
2022-10-10T15:42:12.634Z,8.37
2022-10-10T15:44:44.891Z,4.67
2022-10-10T15:47:12.387Z,9.23
2022-10-10T15:49:39.809Z,6.50
2022-10-10T15:52:07.209Z,7.07
2022-10-10T15:54:34.651Z,11.57
2022-10-10T15:57:02.078Z,10.90
2022-10-10T15:59:30.905Z,9.47
2022-10-10T16:01:58.336Z,9.07
2022-10-10T16:04:26.060Z,8.40
2022-10-10T16:07:19.352Z,12.60
2022-10-10T16:09:41.873Z,12.33
2022-10-10T16:12:09.443Z,14.80
2022-10-10T16:14:38.158Z,16.13
2022-10-10T16:17:05.592Z,15.90
2022-10-10T16:19:32.998Z,14.53
2022-10-10T16:22:00.388Z,12.63
2022-10-10T16:24:27.889Z,12.53
2022-10-10T16:26:55.262Z,12.80
2022-10-10T16:29:22.676Z,12.67
2022-10-10T16:31:51.410Z,10.60
2022-10-10T16:34:19.531Z,12.40
2022-10-10T16:36:46.898Z,13.10
2022-10-10T16:39:14.282Z,11.77
2022-10-10T16:41:49.587Z,6.53
2022-10-10T16:44:17.345Z,13.57
2022-10-10T16:46:44.874Z,10.93
2022-10-10T16:49:16.229Z,11.23
2022-10-10T16:51:43.779Z,8.07
2022-10-10T16:54:11.211Z,8.53
2022-10-10T16:56:39.168Z,8.77
2022-10-10T16:59:06.574Z,9.87
2022-10-10T17:01:35.113Z,12.53
2022-10-10T17:04:03.641Z,13.47
2022-10-10T17:06:37.239Z,13.33
2022-10-10T17:09:05.665Z,9.97
2022-10-10T17:11:33.217Z,14.33
2022-10-10T17:14:00.694Z,13.30
2022-10-10T17:17:10.526Z,9.93
2022-10-10T17:19:17.229Z,11.70
2022-10-10T17:21:45.967Z,8.27
2022-10-10T17:24:13.366Z,11.57
2022-10-10T17:26:40.751Z,10.00
2022-10-10T17:29:08.170Z,5.80
2022-10-10T17:31:35.551Z,9.90
2022-10-10T17:34:03.006Z,8.90
2022-10-10T17:36:30.430Z,12.53
2022-10-10T17:39:00.537Z,8.33
2022-10-10T17:41:28.776Z,17.23
2022-10-10T17:43:56.292Z,13.73
2022-10-10T17:46:41.275Z,8.67
2022-10-10T17:49:10.502Z,9.77
2022-10-10T17:51:38.582Z,6.10
2022-10-10T17:54:07.708Z,7.47
2022-10-10T17:56:35.160Z,10.17
2022-10-10T17:59:05.391Z,6.90
2022-10-10T18:01:33.328Z,9.67
2022-10-10T18:04:01.825Z,5.57
2022-10-10T18:06:29.839Z,8.50
2022-10-10T18:08:57.517Z,17.53
2022-10-10T18:11:27.171Z,8.13
2022-10-10T18:13:59.831Z,11.40
2022-10-10T18:16:28.187Z,11.03
2022-10-10T18:18:55.569Z,10.70
2022-10-10T18:21:23.922Z,13.17
2022-10-10T18:23:51.687Z,13.30
2022-10-10T18:26:20.560Z,11.23
2022-10-10T18:28:52.226Z,12.00
2022-10-10T18:31:20.882Z,10.17
2022-10-10T18:33:48.690Z,5.77
2022-10-10T18:36:16.939Z,7.20
2022-10-10T18:38:44.396Z,11.23
2022-10-10T18:41:13.124Z,10.07
2022-10-10T18:43:40.740Z,6.80
2022-10-10T18:46:10.015Z,7.33
2022-10-10T18:48:38.528Z,6.30
2022-10-10T18:51:07.184Z,6.97
2022-10-10T18:53:36.278Z,6.60
2022-10-10T18:56:03.731Z,8.70
2022-10-10T18:58:31.449Z,9.30
2022-10-10T19:00:59.522Z,7.50
2022-10-10T19:03:28.656Z,8.00
2022-10-10T19:05:56.082Z,9.27
2022-10-10T19:08:23.501Z,6.73
2022-10-10T19:10:51.940Z,9.90
2022-10-10T19:13:19.899Z,8.87
2022-10-10T19:15:49.813Z,11.37
2022-10-10T19:18:17.348Z,9.60
2022-10-10T19:20:46.239Z,15.13
2022-10-10T19:23:14.872Z,12.93
2022-10-10T19:25:42.974Z,14.87
2022-10-10T19:28:10.546Z,13.10
2022-10-10T19:30:39.048Z,13.63
2022-10-10T19:33:06.879Z,14.10
2022-10-10T19:35:36.174Z,15.03
2022-10-10T19:38:05.097Z,15.67
2022-10-10T19:40:32.540Z,14.90
2022-10-10T19:42:59.997Z,12.67
2022-10-10T19:45:27.440Z,14.10
2022-10-10T19:47:54.849Z,10.23
2022-10-10T19:50:22.275Z,13.33
2022-10-10T19:52:49.765Z,8.30
2022-10-10T19:55:19.878Z,8.80
2022-10-10T19:57:47.296Z,8.60
2022-10-10T20:00:15.293Z,7.47
2022-10-10T20:02:43.848Z,7.30
2022-10-10T20:05:11.235Z,5.37
2022-10-10T20:07:38.666Z,6.90
2022-10-10T20:10:06.372Z,8.10
2022-10-10T20:12:35.996Z,6.97
2022-10-10T20:15:03.468Z,4.70
2022-10-10T20:17:30.872Z,5.80
2022-10-10T20:19:58.512Z,5.70
2022-10-10T20:22:25.901Z,6.80
2022-10-10T20:24:53.264Z,8.53
2022-10-10T20:27:20.693Z,5.47
2022-10-10T20:29:49.440Z,6.70
2022-10-10T20:32:16.829Z,6.20
2022-10-10T20:34:44.317Z,7.03
2022-10-10T20:37:11.739Z,7.20
2022-10-10T20:39:39.191Z,8.80
2022-10-10T20:42:06.648Z,7.83
2022-10-10T20:44:34.018Z,4.83
2022-10-10T20:47:02.770Z,12.57
2022-10-10T20:49:30.165Z,5.03
2022-10-10T20:51:57.562Z,4.37
2022-10-10T20:54:25.414Z,5.87
2022-10-10T20:56:53.025Z,6.93
2022-10-10T20:59:21.228Z,4.70
2022-10-10T21:01:48.732Z,5.27
2022-10-10T21:04:17.544Z,6.70
2022-10-10T21:06:44.965Z,5.23
2022-10-10T21:09:13.567Z,8.10
2022-10-10T21:11:41.266Z,6.53
2022-10-10T21:14:08.796Z,6.80
2022-10-10T21:16:37.594Z,10.37
2022-10-10T21:19:06.079Z,7.07
2022-10-10T21:21:36.371Z,7.80
2022-10-10T21:24:05.326Z,5.03
2022-10-10T21:26:32.983Z,9.17
2022-10-10T21:29:00.736Z,11.60
2022-10-10T21:31:29.333Z,10.10
2022-10-10T21:33:56.728Z,8.77
2022-10-10T21:36:25.184Z,8.00
2022-10-10T21:38:53.917Z,8.43
2022-10-10T21:41:22.049Z,7.93
2022-10-10T21:43:52.119Z,6.30
2022-10-10T21:46:22.138Z,5.57
2022-10-10T21:48:49.594Z,6.97
2022-10-10T21:51:17.208Z,8.00
2022-10-10T21:53:44.632Z,6.07
2022-10-10T21:56:13.627Z,8.23
2022-10-10T21:58:41.800Z,8.00
2022-10-10T22:01:09.720Z,8.67
2022-10-10T22:03:37.495Z,11.27
2022-10-10T22:06:05.728Z,9.70
2022-10-10T22:08:33.639Z,10.60
2022-10-10T22:11:01.495Z,9.20
2022-10-10T22:13:30.281Z,5.43
2022-10-10T22:15:58.029Z,9.90
2022-10-10T22:18:25.560Z,7.03
2022-10-10T22:20:53.332Z,7.80
2022-10-10T22:23:20.836Z,8.33
2022-10-10T22:25:48.917Z,11.67
2022-10-10T22:28:16.677Z,7.47
2022-10-10T22:30:45.751Z,6.50
2022-10-10T22:33:13.186Z,5.10
2022-10-10T22:35:41.082Z,5.33
2022-10-10T22:38:08.570Z,4.67
2022-10-10T22:40:37.104Z,3.60
2022-10-10T22:43:04.698Z,7.57
2022-10-10T22:45:32.076Z,8.33
2022-10-10T22:48:00.897Z,3.80
2022-10-10T22:50:28.453Z,6.70
2022-10-10T22:52:56.019Z,5.27
2022-10-10T22:55:23.446Z,8.27
2022-10-10T22:57:50.797Z,12.90
2022-10-10T23:00:18.357Z,8.43
2022-10-10T23:02:45.736Z,4.33
2022-10-10T23:05:14.623Z,7.40
2022-10-10T23:07:42.202Z,7.93
2022-10-10T23:10:10.463Z,8.23
2022-10-10T23:12:38.131Z,3.83
2022-10-10T23:15:05.913Z,7.17
2022-10-10T23:17:33.258Z,8.70
2022-10-10T23:20:00.612Z,14.50
2022-10-10T23:22:29.322Z,5.07
2022-10-10T23:24:56.750Z,7.80
2022-10-10T23:27:24.110Z,3.70
2022-10-10T23:29:51.476Z,13.50
2022-10-10T23:32:18.860Z,8.20
2022-10-10T23:34:46.247Z,8.83
2022-10-10T23:37:13.629Z,3.60
2022-10-10T23:39:43.327Z,5.80
2022-10-10T23:42:10.746Z,2.90
2022-10-10T23:44:38.140Z,4.80
2022-10-10T23:47:05.581Z,5.43
2022-10-10T23:49:33.091Z,3.70
2022-10-10T23:52:00.463Z,4.20
2022-10-10T23:54:27.894Z,10.43
2022-10-10T23:56:56.659Z,3.53
2022-10-10T23:59:24.066Z,6.43
